Johnstown, PA (15901)

11:59 AM EST del 30 Gennaio 2015 (GMT -0500)
Brownstown | Change Station
CLOSE
Current Station
Stazione meteo personale
Location: Johnstown, PA
Altitudine: 1516 ft
Stazioni meteo nelle vicinanze
Avvisi attivi: Wind Chill Advisory

Alt. 1516 ft 40.34 °N, 78.94 °W | Updated 1 second ago

Neve
Neve
20.1 °F
Sembra 13 °F
N
5.0
Vento Variabile Vento da NNE
Gusts 9.2 mph

Oggi
Massima -- | Minima -- °F
--% Possibilità di precip.
Ieri
Massima -- | Minima -- °F
Precip. -- in
7:26 AM 5:31 PM
Gobba a ponente, 84% visible
Pressione 30.13 in
Visibilità 0.8 miglia
Nuvole Nubi sparse 1400 ft
Coperto 2000 ft
Raffreddamento del vento 13 °F
Punto di rugiada 18 °F
Umidità 90%
Piovosità 0.01 in
Spessore del manto nevoso Non disponibile.
Raggi UV 1 fuori da 12
Polline .10 fuori da 12
Qualità dell'aria Non disponibile.
Flu Activity Non disponibile.
METAR KJST 301654Z AUTO 29020G26KT 3/4SM -SN SCT014 OVC020 M08/M12 A3003 RMK AO2 PK WND 30029/1605 SLP202 P0000 T10831117

More Conditions Fewer Conditions

Pressione 30.13 in
Visibilità 0.8 miglia
Nuvole Nubi sparse 1400 ft
Coperto 2000 ft
Raffreddamento del vento 13 °F
Punto di rugiada 18 °F
Umidità 90%
Piovosità 0.01 in
Spessore del manto nevoso Non disponibile.
Raggi UV 1 fuori da 12
Polline .10 fuori da 12
Qualità dell'aria Non disponibile.
Flu Activity Non disponibile.
METAR KJST 301654Z AUTO 29020G26KT 3/4SM -SN SCT014 OVC020 M08/M12 A3003 RMK AO2 PK WND 30029/1605 SLP202 P0000 T10831117

More Conditions Fewer Conditions

10-Day Weather Forecast

Almanac

Astronomia

Jan. 30, 2015 Alba Tramonto
Ora attuale
Crepuscolo civile
Crepuscolo nautico
Crepuscolo astronomico
Luna
Estensione della luce visibile
Lunghezza del giorno
Tomorrow will be .
, % of the Moon is Illuminated

Gli estremi di oggi

State Highs State Lows

Community

WunderPhotos

Upload Photos

1,791,809 foto caricate!

WunderBlogs® & News

Nearby

Qualità dell'aria

  Qualità dell'aria Indice AQ Inquinante
Not available.

Profondità neve

Stazione Profondità Altitudine

Attività sismica

Città  Distanza Mag. Data & Ora
Minimo Magnitudo Mostrato è 2.5.

Temperature delle acque costiere

Località Temperatura

Stazioni meteo nelle vicinanze